createdAt,value
2023-05-22T00:02:00.409Z,7.85
2023-05-22T00:05:07.099Z,7.68
2023-05-22T00:08:12.398Z,7.63
2023-05-22T00:11:17.976Z,7.07
2023-05-22T00:14:23.660Z,7.20
2023-05-22T00:17:31.017Z,7.32
2023-05-22T00:20:39.385Z,7.18
2023-05-22T00:23:46.086Z,7.93
2023-05-22T00:26:51.496Z,6.72
2023-05-22T00:29:57.044Z,9.32
2023-05-22T00:33:03.024Z,7.45
2023-05-22T00:36:09.199Z,7.70
2023-05-22T00:39:14.880Z,6.88
2023-05-22T00:42:21.454Z,6.70
2023-05-22T00:45:27.172Z,6.85
2023-05-22T00:48:33.028Z,5.90
2023-05-22T00:51:38.256Z,6.40
2023-05-22T00:54:44.086Z,6.78
2023-05-22T00:57:52.179Z,6.43
2023-05-22T01:00:57.596Z,5.72
2023-05-22T01:04:08.496Z,6.18
2023-05-22T01:07:13.953Z,6.57
2023-05-22T01:10:19.827Z,6.68
2023-05-22T01:14:01.408Z,5.70
2023-05-22T01:17:35.071Z,6.22
2023-05-22T01:20:53.186Z,6.05
2023-05-22T01:24:22.622Z,6.95
2023-05-22T01:28:03.335Z,6.03
2023-05-22T01:31:16.143Z,6.13
2023-05-22T01:34:22.161Z,6.32
2023-05-22T01:37:28.431Z,6.82
2023-05-22T01:40:34.703Z,5.88
2023-05-22T01:43:42.832Z,6.38
2023-05-22T01:46:48.336Z,6.10
2023-05-22T01:49:54.015Z,6.28
2023-05-22T01:53:20.438Z,6.93
2023-05-22T01:56:41.585Z,6.47
2023-05-22T01:59:58.932Z,6.30
2023-05-22T02:03:10.545Z,6.13
2023-05-22T02:06:16.386Z,6.00
2023-05-22T02:09:25.619Z,6.30
2023-05-22T02:12:31.761Z,6.13
2023-05-22T02:15:37.226Z,6.15
2023-05-22T02:18:43.316Z,6.95
2023-05-22T02:21:49.253Z,6.07
2023-05-22T02:24:55.280Z,6.15
2023-05-22T02:28:01.525Z,5.65
2023-05-22T02:31:07.186Z,6.05
2023-05-22T02:34:12.765Z,7.38
2023-05-22T02:37:18.038Z,6.78
2023-05-22T02:40:23.213Z,6.55
2023-05-22T02:43:28.808Z,5.85
2023-05-22T02:46:34.878Z,6.93
2023-05-22T02:49:40.901Z,7.88
2023-05-22T02:52:46.502Z,6.50
2023-05-22T02:55:53.520Z,7.05
2023-05-22T02:58:59.980Z,6.45
2023-05-22T03:02:06.201Z,7.30
2023-05-22T03:05:11.305Z,7.10
2023-05-22T03:08:17.026Z,7.60
2023-05-22T03:11:22.384Z,8.48
2023-05-22T03:14:29.421Z,7.55
2023-05-22T03:17:34.959Z,7.20
2023-05-22T03:20:40.938Z,7.70
2023-05-22T03:23:47.569Z,8.10
2023-05-22T03:26:53.265Z,8.40
2023-05-22T03:30:09.185Z,8.32
2023-05-22T03:33:16.942Z,8.45
2023-05-22T03:36:23.305Z,7.90
2023-05-22T03:39:28.578Z,7.60
2023-05-22T03:42:42.155Z,8.15
2023-05-22T03:45:47.645Z,8.60
2023-05-22T03:48:52.938Z,8.05
2023-05-22T03:51:58.698Z,8.73
2023-05-22T03:55:04.805Z,9.82
2023-05-22T03:58:10.439Z,7.57
2023-05-22T04:01:18.233Z,7.30
2023-05-22T04:04:27.088Z,8.73
2023-05-22T04:07:32.950Z,8.30
2023-05-22T04:10:39.164Z,7.43
2023-05-22T04:13:45.271Z,8.73
2023-05-22T04:16:50.759Z,8.25
2023-05-22T04:19:58.578Z,7.68
2023-05-22T04:23:05.295Z,8.68
2023-05-22T04:26:11.175Z,8.85
2023-05-22T04:29:16.728Z,8.43
2023-05-22T04:32:23.909Z,8.10
2023-05-22T04:35:29.789Z,9.27
2023-05-22T04:38:37.838Z,9.50
2023-05-22T04:41:43.235Z,9.30
2023-05-22T04:44:48.790Z,8.85
2023-05-22T04:47:55.051Z,9.50
2023-05-22T04:51:02.855Z,9.10
2023-05-22T04:54:08.822Z,8.95
2023-05-22T04:57:14.280Z,8.68
2023-05-22T05:00:20.905Z,9.68
2023-05-22T05:03:27.353Z,9.60
2023-05-22T05:06:32.608Z,9.07
2023-05-22T05:09:37.930Z,9.80
2023-05-22T05:12:44.034Z,9.25
2023-05-22T05:15:49.652Z,8.60
2023-05-22T05:18:55.858Z,9.32
2023-05-22T05:22:01.721Z,8.40
2023-05-22T05:25:10.937Z,8.63
2023-05-22T05:28:18.230Z,8.27
2023-05-22T05:31:24.060Z,9.75
2023-05-22T05:34:52.056Z,10.23
2023-05-22T05:38:02.075Z,9.93
2023-05-22T05:41:08.926Z,9.35
2023-05-22T05:44:15.972Z,8.13
2023-05-22T05:47:24.352Z,8.73
2023-05-22T05:50:29.997Z,9.15
2023-05-22T05:53:37.284Z,8.25
2023-05-22T05:56:43.432Z,7.38
2023-05-22T05:59:49.412Z,7.35
2023-05-22T06:03:13.889Z,7.97
2023-05-22T06:06:36.662Z,7.43
2023-05-22T06:10:09.767Z,7.13
2023-05-22T06:13:44.373Z,6.47
2023-05-22T06:16:49.501Z,7.30
2023-05-22T06:19:56.834Z,7.13
2023-05-22T06:23:01.926Z,6.63
2023-05-22T06:26:08.262Z,6.85
2023-05-22T06:29:17.035Z,7.55
2023-05-22T06:32:25.083Z,6.80
2023-05-22T06:35:32.843Z,7.45
2023-05-22T06:38:38.237Z,6.60
2023-05-22T06:41:46.809Z,6.43
2023-05-22T06:44:53.486Z,6.28
2023-05-22T06:48:01.594Z,6.05
2023-05-22T06:51:11.878Z,6.00
2023-05-22T06:54:21.498Z,4.97
2023-05-22T06:57:34.328Z,4.95
2023-05-22T07:00:42.730Z,4.97
2023-05-22T07:04:05.434Z,6.05
2023-05-22T07:07:15.621Z,5.78
2023-05-22T07:10:21.572Z,5.90
2023-05-22T07:13:27.084Z,5.95
2023-05-22T07:16:33.157Z,6.35
2023-05-22T07:19:40.097Z,5.45
2023-05-22T07:22:46.059Z,6.38
2023-05-22T07:25:51.741Z,6.13
2023-05-22T07:29:00.224Z,6.38
2023-05-22T07:32:06.706Z,6.13
2023-05-22T07:35:13.894Z,5.93
2023-05-22T07:38:19.365Z,6.10
2023-05-22T07:41:34.751Z,5.32
2023-05-22T07:44:40.763Z,6.47
2023-05-22T07:47:46.320Z,6.05
2023-05-22T07:50:51.818Z,7.03
2023-05-22T07:57:08.308Z,7.10
2023-05-22T08:00:18.230Z,6.30
2023-05-22T08:03:24.518Z,5.95
2023-05-22T08:06:31.192Z,6.40
2023-05-22T08:09:36.566Z,6.10
2023-05-22T08:12:42.212Z,6.88
2023-05-22T08:15:47.260Z,5.95
2023-05-22T08:18:52.549Z,5.72
2023-05-22T08:21:58.513Z,5.55
2023-05-22T08:25:04.104Z,8.25
2023-05-22T08:28:09.893Z,5.85
2023-05-22T08:31:15.265Z,5.85
2023-05-22T08:34:20.768Z,5.85
2023-05-22T08:37:26.437Z,5.28
2023-05-22T08:40:38.168Z,5.30
2023-05-22T08:43:43.903Z,6.70
2023-05-22T08:46:52.041Z,4.97
2023-05-22T08:49:59.471Z,5.63
2023-05-22T08:53:07.435Z,5.22
2023-05-22T08:56:13.237Z,5.15
2023-05-22T08:59:19.840Z,5.55
2023-05-22T09:02:26.462Z,6.05
2023-05-22T09:05:31.892Z,5.68
2023-05-22T09:08:39.194Z,6.25
2023-05-22T09:11:44.783Z,6.63
2023-05-22T09:14:50.774Z,6.85
2023-05-22T09:17:57.066Z,6.70
2023-05-22T09:21:08.925Z,6.30
2023-05-22T09:24:20.946Z,5.88
2023-05-22T09:27:26.404Z,5.43
2023-05-22T09:30:36.535Z,4.88
2023-05-22T09:33:44.778Z,5.60
2023-05-22T09:36:51.570Z,5.72
2023-05-22T09:39:56.900Z,5.65
2023-05-22T09:43:07.117Z,5.35
2023-05-22T09:46:16.878Z,5.20
2023-05-22T09:49:22.528Z,5.82
2023-05-22T09:52:35.207Z,5.68
2023-05-22T09:55:40.987Z,5.38
2023-05-22T09:58:48.057Z,4.88
2023-05-22T10:01:54.475Z,5.57
2023-05-22T10:05:01.450Z,5.20
2023-05-22T10:08:14.428Z,5.32
2023-05-22T10:11:20.077Z,5.43
2023-05-22T10:14:26.999Z,5.28
2023-05-22T10:17:34.732Z,5.72
2023-05-22T10:20:41.620Z,5.47
2023-05-22T10:23:48.140Z,5.18
2023-05-22T10:26:54.716Z,5.88
2023-05-22T10:30:24.905Z,5.72
2023-05-22T10:34:10.899Z,5.35
2023-05-22T10:37:57.949Z,6.03
2023-05-22T10:41:04.842Z,5.15
2023-05-22T10:44:28.330Z,5.03
2023-05-22T10:47:34.633Z,5.38
2023-05-22T10:50:59.859Z,5.25
2023-05-22T10:54:05.908Z,5.95
2023-05-22T10:57:34.896Z,5.63
2023-05-22T11:00:40.132Z,5.35
2023-05-22T11:04:12.920Z,5.72
2023-05-22T11:07:21.864Z,6.15
2023-05-22T11:10:56.448Z,6.15
2023-05-22T11:14:05.690Z,5.35
2023-05-22T11:17:31.135Z,5.53
2023-05-22T11:20:38.253Z,5.82
2023-05-22T11:24:02.271Z,5.47
2023-05-22T11:27:08.417Z,5.97
2023-05-22T11:30:33.222Z,5.90
2023-05-22T11:33:39.393Z,5.53
2023-05-22T11:36:45.122Z,5.55
2023-05-22T11:40:06.571Z,5.45
2023-05-22T11:43:12.344Z,6.32
2023-05-22T11:46:18.375Z,5.97
2023-05-22T11:49:26.912Z,5.65
2023-05-22T11:52:36.944Z,5.28
2023-05-22T11:55:43.476Z,5.65
2023-05-22T11:58:50.149Z,5.63
2023-05-22T12:01:55.970Z,5.82
2023-05-22T12:05:01.363Z,5.53
2023-05-22T12:08:06.924Z,5.45
2023-05-22T12:11:13.016Z,5.63
2023-05-22T12:14:18.756Z,5.40
2023-05-22T12:17:24.558Z,5.22
2023-05-22T12:20:31.308Z,5.72
2023-05-22T12:23:37.429Z,5.10
2023-05-22T12:26:50.592Z,6.13
2023-05-22T12:29:56.821Z,5.75
2023-05-22T12:33:02.488Z,5.85
2023-05-22T12:36:08.613Z,6.05
2023-05-22T12:39:18.463Z,5.18
2023-05-22T12:42:26.484Z,5.13
2023-05-22T12:45:31.777Z,6.03
2023-05-22T12:48:37.375Z,6.07
2023-05-22T12:51:43.109Z,5.00
2023-05-22T12:54:48.694Z,5.20
2023-05-22T12:57:54.235Z,5.40
2023-05-22T13:00:59.994Z,4.72
2023-05-22T13:04:05.273Z,5.00
2023-05-22T13:07:10.906Z,5.68
2023-05-22T13:10:16.678Z,6.07
2023-05-22T13:13:22.304Z,4.60
2023-05-22T13:16:28.096Z,5.13
2023-05-22T13:19:33.815Z,5.28
2023-05-22T13:22:39.159Z,5.75
2023-05-22T13:25:44.597Z,5.85
2023-05-22T13:28:50.409Z,5.20
2023-05-22T13:31:56.139Z,5.30
2023-05-22T13:35:01.720Z,5.63
2023-05-22T13:38:07.467Z,5.13
2023-05-22T13:41:13.119Z,6.63
2023-05-22T13:44:19.275Z,5.57
2023-05-22T13:47:26.373Z,9.00
2023-05-22T13:50:32.412Z,5.85
2023-05-22T13:53:38.737Z,6.07
2023-05-22T13:56:44.643Z,9.80
2023-05-22T13:59:49.636Z,7.45
2023-05-22T14:02:54.810Z,6.40
2023-05-22T14:06:00.158Z,13.18
2023-05-22T14:09:07.550Z,7.50
2023-05-22T14:12:13.169Z,7.40
2023-05-22T14:15:18.976Z,6.10
2023-05-22T14:18:24.423Z,5.00
2023-05-22T14:21:31.170Z,5.20
2023-05-22T14:24:36.663Z,5.25
2023-05-22T14:27:42.312Z,22.23
2023-05-22T14:30:47.828Z,15.23
2023-05-22T14:33:53.088Z,6.05
2023-05-22T14:36:58.731Z,5.10
2023-05-22T14:40:05.306Z,5.70
2023-05-22T14:43:10.805Z,5.15
2023-05-22T14:46:16.573Z,5.95
2023-05-22T14:49:22.326Z,6.13
2023-05-22T14:52:28.383Z,5.53
2023-05-22T14:55:34.133Z,4.97
2023-05-22T14:58:40.067Z,4.80
2023-05-22T15:01:50.467Z,4.88
2023-05-22T15:04:56.245Z,4.57
2023-05-22T15:08:01.247Z,5.13
2023-05-22T15:11:06.580Z,5.00
2023-05-22T15:14:12.156Z,5.38
2023-05-22T15:17:17.996Z,5.20
2023-05-22T15:20:23.546Z,5.80
2023-05-22T15:23:29.257Z,5.63
2023-05-22T15:26:35.012Z,5.57
2023-05-22T15:29:40.360Z,5.45
2023-05-22T15:32:45.949Z,5.28
2023-05-22T15:35:52.159Z,5.55
2023-05-22T15:38:57.489Z,5.63
2023-05-22T15:42:06.867Z,5.95
2023-05-22T15:45:12.567Z,5.87
2023-05-22T15:48:18.169Z,5.68
2023-05-22T15:51:24.021Z,6.00
2023-05-22T15:54:29.541Z,5.47
2023-05-22T15:57:34.639Z,5.05
2023-05-22T16:00:41.524Z,5.55
2023-05-22T16:03:47.333Z,5.85
2023-05-22T16:06:53.159Z,5.40
2023-05-22T16:09:58.769Z,5.35
2023-05-22T16:13:05.681Z,5.45
2023-05-22T16:16:11.203Z,5.40
2023-05-22T16:19:16.503Z,5.50
2023-05-22T19:47:13.950Z,7.60
2023-05-22T19:50:19.241Z,8.55
2023-05-22T19:53:24.638Z,8.02
2023-05-22T19:56:30.501Z,7.82
2023-05-22T19:59:36.946Z,8.52
2023-05-22T20:02:42.757Z,9.30
2023-05-22T20:05:48.691Z,8.50
2023-05-22T20:08:54.423Z,9.10
2023-05-22T20:11:59.950Z,8.40
2023-05-22T20:15:07.153Z,7.93
2023-05-22T20:18:12.777Z,9.27
2023-05-22T20:21:18.395Z,7.90
2023-05-22T20:24:27.191Z,8.77
2023-05-22T20:27:32.503Z,8.75
2023-05-22T20:30:37.890Z,8.77
2023-05-22T20:33:43.498Z,8.85
2023-05-22T20:36:49.499Z,9.60
2023-05-22T20:39:55.332Z,8.65
2023-05-22T20:43:02.922Z,8.85
2023-05-22T20:46:08.285Z,9.25
2023-05-22T20:49:13.766Z,9.02
2023-05-22T20:52:20.068Z,9.60
2023-05-22T20:55:25.800Z,9.93
2023-05-22T20:58:31.587Z,9.93
2023-05-22T21:01:37.002Z,9.77
2023-05-22T21:04:42.599Z,10.57
2023-05-22T21:07:48.317Z,10.82
2023-05-22T21:10:54.620Z,11.93
2023-05-22T21:14:00.130Z,12.32
2023-05-22T21:17:05.790Z,12.60
2023-05-22T21:20:11.958Z,11.98
2023-05-22T21:23:17.320Z,12.25
2023-05-22T21:26:23.312Z,11.52
2023-05-22T21:29:28.880Z,12.52
2023-05-22T21:32:34.762Z,12.63
2023-05-22T21:35:40.199Z,13.57
2023-05-22T21:38:46.749Z,13.35
2023-05-22T21:41:53.161Z,11.70
2023-05-22T21:44:58.985Z,12.05
2023-05-22T21:48:05.193Z,12.38
2023-05-22T21:51:10.834Z,11.90
2023-05-22T21:54:16.354Z,12.00
2023-05-22T21:57:22.052Z,13.68
2023-05-22T22:00:28.846Z,12.48
2023-05-22T22:03:34.773Z,12.18
2023-05-22T22:06:40.263Z,12.43
2023-05-22T22:09:46.016Z,12.57
2023-05-22T22:12:51.402Z,13.05
2023-05-22T22:15:57.348Z,14.18
2023-05-22T22:19:03.342Z,13.43
2023-05-22T22:22:09.342Z,12.32
2023-05-22T22:25:14.658Z,11.45
2023-05-22T22:28:19.951Z,11.35
2023-05-22T22:31:26.504Z,11.15
2023-05-22T22:34:31.861Z,11.35
2023-05-22T22:37:37.887Z,12.70
2023-05-22T22:40:43.635Z,13.55
2023-05-22T22:43:48.970Z,12.65
2023-05-22T22:46:55.999Z,13.13
2023-05-22T22:50:01.226Z,11.63
2023-05-22T22:53:06.704Z,13.00
2023-05-22T22:56:12.480Z,13.20
2023-05-22T22:59:18.189Z,12.68
2023-05-22T23:02:23.882Z,13.20
2023-05-22T23:05:29.621Z,13.07
2023-05-22T23:08:35.261Z,13.43
2023-05-22T23:11:40.764Z,13.38
2023-05-22T23:14:46.253Z,12.65
2023-05-22T23:17:52.119Z,12.80
2023-05-22T23:20:57.249Z,12.73
2023-05-22T23:24:07.335Z,13.32
2023-05-22T23:27:12.705Z,12.50
2023-05-22T23:30:18.356Z,13.30
2023-05-22T23:33:23.926Z,13.82
2023-05-22T23:36:29.767Z,13.90
2023-05-22T23:39:35.593Z,13.88
2023-05-22T23:42:41.603Z,14.13
2023-05-22T23:45:47.124Z,13.35
2023-05-22T23:48:52.609Z,13.48
2023-05-22T23:51:58.016Z,12.32
2023-05-22T23:55:03.677Z,13.57
2023-05-22T23:58:09.661Z,13.55
